createdAt,value
2023-06-30T00:00:31.001Z,29.32
2023-06-30T00:01:31.068Z,29.32
2023-06-30T00:02:31.067Z,29.29
2023-06-30T00:03:31.007Z,29.32
2023-06-30T00:04:31.114Z,29.30
2023-06-30T00:05:30.992Z,29.29
2023-06-30T00:06:30.979Z,29.30
2023-06-30T00:07:31.005Z,29.30
2023-06-30T00:08:30.936Z,29.32
2023-06-30T00:09:30.981Z,29.29
2023-06-30T00:10:30.936Z,29.30
2023-06-30T00:11:30.960Z,29.30
2023-06-30T00:12:30.969Z,29.30
2023-06-30T00:13:30.967Z,29.29
2023-06-30T00:14:30.923Z,29.29
2023-06-30T00:15:31.012Z,29.28
2023-06-30T00:16:31.004Z,29.29
2023-06-30T00:17:31.085Z,29.30
2023-06-30T00:18:31.085Z,29.29
2023-06-30T00:19:31.064Z,29.30
2023-06-30T00:20:31.481Z,29.28
2023-06-30T00:21:31.091Z,29.29
2023-06-30T00:22:31.078Z,29.29
2023-06-30T00:23:31.060Z,29.28
2023-06-30T00:24:31.086Z,29.30
2023-06-30T00:25:31.128Z,29.30
2023-06-30T00:26:31.127Z,29.28
2023-06-30T00:27:31.153Z,29.28
2023-06-30T00:28:31.185Z,29.28
2023-06-30T00:29:31.183Z,29.28
2023-06-30T00:30:31.164Z,29.28
2023-06-30T00:31:31.248Z,29.30
2023-06-30T00:32:31.197Z,29.29
2023-06-30T00:33:31.221Z,29.28
2023-06-30T00:34:31.211Z,29.28
2023-06-30T00:35:31.224Z,29.29
2023-06-30T00:36:31.217Z,29.28
2023-06-30T00:37:31.177Z,29.28
2023-06-30T00:38:31.276Z,29.28
2023-06-30T00:39:31.196Z,29.28
2023-06-30T00:40:31.246Z,29.29
2023-06-30T00:41:31.221Z,29.28
2023-06-30T00:42:31.231Z,29.29
2023-06-30T00:43:31.203Z,29.30
2023-06-30T00:44:31.235Z,29.28
2023-06-30T00:45:31.217Z,29.28
2023-06-30T00:46:31.191Z,29.30
2023-06-30T00:47:31.206Z,29.28
2023-06-30T00:48:31.242Z,29.29
2023-06-30T00:49:31.197Z,29.26
2023-06-30T00:50:31.194Z,29.29
2023-06-30T00:51:31.191Z,29.29
2023-06-30T00:52:31.179Z,29.30
2023-06-30T00:53:31.242Z,29.29
2023-06-30T00:54:31.217Z,29.28
2023-06-30T00:55:31.178Z,29.28
2023-06-30T00:56:31.139Z,29.26
2023-06-30T00:57:31.196Z,29.29
2023-06-30T00:58:31.185Z,29.29
2023-06-30T00:59:31.219Z,29.28
2023-06-30T01:00:31.205Z,29.26
2023-06-30T01:01:31.209Z,29.28
2023-06-30T01:02:31.241Z,29.26
2023-06-30T01:03:31.336Z,29.26
2023-06-30T01:04:31.266Z,29.28
2023-06-30T01:05:31.197Z,29.28
2023-06-30T01:06:31.214Z,29.26
2023-06-30T01:07:31.259Z,29.26
2023-06-30T01:08:31.225Z,29.25
2023-06-30T01:09:31.284Z,29.26
2023-06-30T01:10:31.287Z,29.26
2023-06-30T01:11:31.283Z,29.25
2023-06-30T01:12:31.317Z,29.28
2023-06-30T01:13:31.355Z,29.26
2023-06-30T01:14:31.362Z,29.25
2023-06-30T01:15:31.352Z,29.26
2023-06-30T01:16:31.396Z,29.25
2023-06-30T01:17:31.359Z,29.25
2023-06-30T01:18:31.298Z,29.25
2023-06-30T01:19:31.299Z,29.25
2023-06-30T01:20:31.529Z,29.26
2023-06-30T01:21:31.325Z,29.25
2023-06-30T01:22:31.338Z,29.23
2023-06-30T01:23:31.336Z,29.25
2023-06-30T01:24:31.314Z,29.26
2023-06-30T01:25:31.343Z,29.26
2023-06-30T01:26:31.381Z,29.25
2023-06-30T01:27:31.334Z,29.26
2023-06-30T01:28:31.364Z,29.25
2023-06-30T01:29:31.364Z,29.23
2023-06-30T01:30:31.599Z,29.25
2023-06-30T01:31:31.445Z,29.26
2023-06-30T01:32:31.413Z,29.25
2023-06-30T01:33:31.409Z,29.25
2023-06-30T01:34:31.363Z,29.25
2023-06-30T01:35:31.412Z,29.23
2023-06-30T01:36:31.388Z,29.25
2023-06-30T01:37:31.383Z,29.23
2023-06-30T01:38:31.399Z,29.26
2023-06-30T01:39:31.355Z,29.25
2023-06-30T01:40:31.403Z,29.25
2023-06-30T01:41:31.349Z,29.23
2023-06-30T01:42:31.342Z,29.23
2023-06-30T01:43:31.366Z,29.25
2023-06-30T01:44:31.351Z,29.25
2023-06-30T01:45:31.331Z,29.25
2023-06-30T01:46:31.404Z,29.26
2023-06-30T01:47:31.392Z,29.23
2023-06-30T01:48:31.353Z,29.26
2023-06-30T01:49:31.417Z,29.23
2023-06-30T01:50:31.325Z,29.25
2023-06-30T01:51:31.377Z,29.23
2023-06-30T01:52:31.309Z,29.25
2023-06-30T01:53:31.329Z,29.22
2023-06-30T01:54:31.338Z,29.28
2023-06-30T01:55:31.346Z,29.23
2023-06-30T01:56:31.303Z,29.25
2023-06-30T01:57:31.319Z,29.25
2023-06-30T01:58:31.364Z,29.23
2023-06-30T01:59:31.278Z,29.23
2023-06-30T02:00:31.323Z,29.23
2023-06-30T02:01:31.363Z,29.22
2023-06-30T02:02:31.447Z,29.25
2023-06-30T02:03:31.445Z,29.23
2023-06-30T02:04:31.308Z,29.25
2023-06-30T02:05:31.353Z,29.23
2023-06-30T02:06:31.310Z,29.23
2023-06-30T02:07:31.342Z,29.23
2023-06-30T02:08:31.286Z,29.23
2023-06-30T02:09:43.297Z,29.22
2023-06-30T02:10:32.298Z,29.22
2023-06-30T02:11:31.286Z,29.22
2023-06-30T02:12:31.289Z,29.23
2023-06-30T02:13:31.342Z,29.23
2023-06-30T02:14:31.265Z,29.23
2023-06-30T02:15:31.274Z,29.22
2023-06-30T02:16:31.299Z,29.21
2023-06-30T02:17:31.286Z,29.21
2023-06-30T02:18:31.219Z,29.25
2023-06-30T02:19:31.269Z,29.22
2023-06-30T02:20:31.235Z,29.22
2023-06-30T02:21:31.244Z,29.23
2023-06-30T02:22:31.250Z,29.22
2023-06-30T02:23:31.204Z,29.21
2023-06-30T02:24:31.193Z,29.23
2023-06-30T02:25:31.254Z,29.22
2023-06-30T02:26:31.204Z,29.21
2023-06-30T02:27:33.082Z,29.23
2023-06-30T02:28:31.232Z,29.21
2023-06-30T02:29:31.152Z,29.21
2023-06-30T02:30:31.167Z,29.21
2023-06-30T02:31:31.212Z,29.23
2023-06-30T02:32:31.208Z,29.22
2023-06-30T02:33:31.164Z,29.21
2023-06-30T02:34:31.167Z,29.22
2023-06-30T02:35:31.245Z,29.21
2023-06-30T02:36:31.109Z,29.21
2023-06-30T02:37:31.118Z,29.22
2023-06-30T02:38:31.127Z,29.19
2023-06-30T02:39:31.090Z,29.19
2023-06-30T02:40:31.511Z,29.19
2023-06-30T02:41:31.074Z,29.18
2023-06-30T02:42:31.091Z,29.19
2023-06-30T02:43:31.061Z,29.21
2023-06-30T02:44:31.051Z,29.21
2023-06-30T02:45:31.104Z,29.21
2023-06-30T02:46:31.199Z,29.19
2023-06-30T02:47:31.084Z,29.19
2023-06-30T02:48:31.080Z,29.21
2023-06-30T02:49:31.883Z,29.21
2023-06-30T02:50:31.060Z,29.21
2023-06-30T02:51:31.004Z,29.19
2023-06-30T02:52:31.022Z,29.21
2023-06-30T02:53:30.990Z,29.19
2023-06-30T02:54:31.047Z,29.21
2023-06-30T02:55:30.955Z,29.21
2023-06-30T02:56:31.007Z,29.19
2023-06-30T02:57:31.024Z,29.19
2023-06-30T02:58:30.980Z,29.19
2023-06-30T02:59:30.974Z,29.22
2023-06-30T03:00:30.959Z,29.19
2023-06-30T03:01:31.052Z,29.21
2023-06-30T03:02:31.093Z,29.22
2023-06-30T03:03:31.010Z,29.19
2023-06-30T03:04:30.912Z,29.18
2023-06-30T03:05:30.933Z,29.19
2023-06-30T03:06:30.999Z,29.18
2023-06-30T03:07:31.007Z,29.19
2023-06-30T03:08:30.891Z,29.19
2023-06-30T03:09:30.987Z,29.21
2023-06-30T03:10:30.899Z,29.19
2023-06-30T03:11:30.879Z,29.19
2023-06-30T03:12:30.923Z,29.21
2023-06-30T03:13:30.896Z,29.18
2023-06-30T03:14:30.849Z,29.22
2023-06-30T03:15:30.857Z,29.18
2023-06-30T03:16:30.885Z,29.18
2023-06-30T03:17:30.903Z,29.19
2023-06-30T03:18:30.825Z,29.18
2023-06-30T03:19:30.805Z,29.18
2023-06-30T03:20:30.873Z,29.15
2023-06-30T03:21:30.799Z,29.19
2023-06-30T03:22:30.772Z,29.18
2023-06-30T03:23:30.779Z,29.18
2023-06-30T03:24:30.812Z,29.18
2023-06-30T03:25:30.771Z,29.19
2023-06-30T03:26:30.807Z,29.19
2023-06-30T03:27:30.789Z,29.19
2023-06-30T03:28:30.748Z,29.19
2023-06-30T03:29:30.797Z,29.19
2023-06-30T03:30:30.742Z,29.18
2023-06-30T03:31:30.771Z,29.18
2023-06-30T03:32:30.715Z,29.16
2023-06-30T03:33:30.705Z,29.16
2023-06-30T03:34:30.714Z,29.18
2023-06-30T03:35:30.771Z,29.16
2023-06-30T03:36:30.715Z,29.16
2023-06-30T03:37:30.719Z,29.18
2023-06-30T03:38:30.690Z,29.16
2023-06-30T03:39:30.712Z,29.18
2023-06-30T03:40:30.778Z,29.18
2023-06-30T03:41:30.701Z,29.18
2023-06-30T03:42:30.640Z,29.18
2023-06-30T03:43:30.669Z,29.15
2023-06-30T03:44:30.656Z,29.15
2023-06-30T03:45:30.628Z,29.15
2023-06-30T03:46:30.684Z,29.18
2023-06-30T03:47:30.644Z,29.15
2023-06-30T03:48:30.610Z,29.16
2023-06-30T03:49:30.658Z,29.13
2023-06-30T03:50:30.626Z,29.18
2023-06-30T03:51:30.606Z,29.16
2023-06-30T03:52:30.649Z,29.16
2023-06-30T03:53:30.657Z,29.18
2023-06-30T03:54:30.561Z,29.15
2023-06-30T03:55:30.569Z,29.18
2023-06-30T03:56:30.588Z,29.16
2023-06-30T03:57:30.555Z,29.15
2023-06-30T03:58:30.558Z,29.16
2023-06-30T03:59:30.561Z,29.16
2023-06-30T04:00:30.539Z,29.15
2023-06-30T04:01:30.549Z,29.16
2023-06-30T04:02:30.554Z,29.16
2023-06-30T04:03:30.673Z,29.15
2023-06-30T04:04:30.725Z,29.16
2023-06-30T04:05:30.535Z,29.18
2023-06-30T04:06:30.499Z,29.16
2023-06-30T04:07:30.631Z,29.16
2023-06-30T04:08:30.631Z,29.16
2023-06-30T04:09:30.506Z,29.18
2023-06-30T04:10:30.504Z,29.18
2023-06-30T04:11:31.052Z,29.16
2023-06-30T04:12:30.472Z,29.16
2023-06-30T04:13:30.442Z,29.16
2023-06-30T04:14:30.488Z,29.16
2023-06-30T04:15:30.442Z,29.15
2023-06-30T04:16:30.520Z,29.16
2023-06-30T04:17:30.507Z,29.15
2023-06-30T04:18:30.415Z,29.16
2023-06-30T04:19:30.384Z,29.16
2023-06-30T04:20:30.389Z,29.18
2023-06-30T04:21:30.417Z,29.16
2023-06-30T04:22:30.388Z,29.16
2023-06-30T04:23:30.399Z,29.16
2023-06-30T04:24:30.400Z,29.18
2023-06-30T04:25:30.415Z,29.19
2023-06-30T04:26:30.420Z,29.13
2023-06-30T04:27:30.371Z,29.19
2023-06-30T04:28:30.377Z,29.16
2023-06-30T04:29:30.329Z,29.16
2023-06-30T04:30:30.338Z,29.16
2023-06-30T04:31:30.364Z,29.16
2023-06-30T04:32:30.329Z,29.15
2023-06-30T04:33:30.350Z,29.15
2023-06-30T04:34:30.324Z,29.15
2023-06-30T04:35:30.353Z,29.15
2023-06-30T04:36:30.384Z,29.16
2023-06-30T04:37:30.342Z,29.18
2023-06-30T04:38:30.333Z,29.16
2023-06-30T04:39:30.283Z,29.16
2023-06-30T04:40:30.337Z,29.15
2023-06-30T04:41:30.277Z,29.16
2023-06-30T04:42:30.308Z,29.16
2023-06-30T04:43:30.260Z,29.16
2023-06-30T04:44:30.240Z,29.15
2023-06-30T04:45:30.247Z,29.16
2023-06-30T04:46:30.387Z,29.18
2023-06-30T04:47:30.301Z,29.13
2023-06-30T04:48:30.186Z,29.16
2023-06-30T04:49:30.196Z,29.16
2023-06-30T04:50:30.202Z,29.18
2023-06-30T04:51:30.204Z,29.16
2023-06-30T04:52:30.184Z,29.16
2023-06-30T04:53:30.199Z,29.18
2023-06-30T04:54:30.166Z,29.16
2023-06-30T04:55:30.147Z,29.15
2023-06-30T04:56:30.170Z,29.16
2023-06-30T04:57:30.147Z,29.15
2023-06-30T04:58:30.126Z,29.13
2023-06-30T04:59:30.138Z,29.15
2023-06-30T05:00:30.196Z,29.15
2023-06-30T05:01:30.203Z,29.16
2023-06-30T05:02:30.146Z,29.13
2023-06-30T05:03:30.178Z,29.16
2023-06-30T05:04:30.087Z,29.15
2023-06-30T05:05:30.105Z,29.12
2023-06-30T05:06:30.131Z,29.13
2023-06-30T05:07:30.107Z,29.11
2023-06-30T05:08:30.096Z,29.11
2023-06-30T05:09:30.107Z,29.13
2023-06-30T05:10:30.043Z,29.09
2023-06-30T05:11:30.053Z,29.13
2023-06-30T05:12:30.060Z,29.11
2023-06-30T05:13:30.077Z,29.12
2023-06-30T05:14:30.050Z,29.09
2023-06-30T05:15:30.034Z,29.12
2023-06-30T05:16:32.008Z,29.12
2023-06-30T05:17:30.234Z,29.13
2023-06-30T05:18:30.017Z,29.11
2023-06-30T05:19:30.023Z,29.13
2023-06-30T05:20:29.973Z,29.11
2023-06-30T05:21:29.947Z,29.09
2023-06-30T05:22:29.988Z,29.12
2023-06-30T05:23:30.006Z,29.11
2023-06-30T05:24:30.044Z,29.12
2023-06-30T05:25:29.930Z,29.12
2023-06-30T05:26:29.961Z,29.11
2023-06-30T05:27:29.972Z,29.11
2023-06-30T05:28:29.927Z,29.13
2023-06-30T05:29:29.919Z,29.12
2023-06-30T05:30:29.991Z,29.11
2023-06-30T05:31:29.921Z,29.11
2023-06-30T05:32:29.884Z,29.09
2023-06-30T05:33:29.908Z,29.13
2023-06-30T05:34:29.898Z,29.11
2023-06-30T05:35:29.934Z,29.11
2023-06-30T05:36:29.887Z,29.12
2023-06-30T05:37:29.856Z,29.15
2023-06-30T05:38:29.838Z,29.13
2023-06-30T05:39:29.849Z,29.12
2023-06-30T05:40:29.839Z,29.13
2023-06-30T05:41:29.843Z,29.15
2023-06-30T05:42:29.823Z,29.13
2023-06-30T05:43:29.858Z,29.13
2023-06-30T05:44:29.852Z,29.12
2023-06-30T05:45:29.821Z,29.12
2023-06-30T05:46:29.809Z,29.15
2023-06-30T05:47:29.912Z,29.12
2023-06-30T05:48:29.815Z,29.05
2023-06-30T05:49:29.771Z,29.09
2023-06-30T05:50:29.772Z,29.12
2023-06-30T05:51:29.764Z,29.12
2023-06-30T05:52:29.711Z,29.13
2023-06-30T05:53:29.764Z,29.21
2023-06-30T05:54:29.827Z,29.23
2023-06-30T05:55:29.730Z,29.29
2023-06-30T05:56:29.734Z,29.32
2023-06-30T05:57:29.688Z,29.39
2023-06-30T05:58:29.689Z,29.42
2023-06-30T05:59:29.699Z,29.46
2023-06-30T06:00:29.741Z,29.46
2023-06-30T06:01:29.683Z,29.50
2023-06-30T06:02:29.777Z,29.52
2023-06-30T06:03:29.759Z,29.54
2023-06-30T06:04:29.810Z,29.54
2023-06-30T06:05:29.940Z,29.57
2023-06-30T06:06:29.627Z,29.60
2023-06-30T06:07:29.696Z,29.60
2023-06-30T06:08:29.765Z,29.60
2023-06-30T06:09:29.596Z,29.59
2023-06-30T06:10:29.653Z,29.59
2023-06-30T06:11:29.624Z,29.57
2023-06-30T06:12:29.580Z,29.56
2023-06-30T06:13:29.624Z,29.54
2023-06-30T06:14:29.708Z,29.60
2023-06-30T06:15:29.579Z,29.54
2023-06-30T06:16:29.595Z,29.54
2023-06-30T06:17:29.618Z,29.49
2023-06-30T06:18:29.566Z,29.52
2023-06-30T06:19:29.689Z,29.53
2023-06-30T06:20:29.840Z,29.53
2023-06-30T06:21:29.777Z,29.50
2023-06-30T06:22:29.851Z,29.49
2023-06-30T06:23:29.871Z,29.46
2023-06-30T06:24:29.939Z,29.49
2023-06-30T06:25:30.031Z,29.46
2023-06-30T06:26:30.075Z,29.45
2023-06-30T06:27:30.158Z,29.42
2023-06-30T06:28:30.163Z,29.45
2023-06-30T06:29:30.271Z,29.40
2023-06-30T06:30:30.484Z,29.39
2023-06-30T06:31:30.418Z,29.43
2023-06-30T06:32:30.448Z,29.42
2023-06-30T06:33:30.465Z,29.37
2023-06-30T06:34:30.525Z,29.42
2023-06-30T06:35:30.557Z,29.36
2023-06-30T06:36:30.647Z,29.40
2023-06-30T06:37:30.653Z,29.40
2023-06-30T06:38:30.698Z,29.37
2023-06-30T06:39:30.741Z,29.39
2023-06-30T06:40:30.721Z,29.37
2023-06-30T06:41:30.744Z,29.36
2023-06-30T06:42:30.791Z,29.33
2023-06-30T06:43:30.805Z,29.36
2023-06-30T06:44:30.819Z,29.35
2023-06-30T06:45:30.908Z,29.33
2023-06-30T06:46:30.879Z,29.30
2023-06-30T06:47:31.023Z,29.32
2023-06-30T06:48:30.933Z,29.32
2023-06-30T06:49:30.894Z,29.30
2023-06-30T06:50:30.945Z,29.33
2023-06-30T06:51:30.976Z,29.36
2023-06-30T06:52:31.008Z,29.40
2023-06-30T06:53:31.027Z,29.43
2023-06-30T06:54:31.089Z,29.46
2023-06-30T06:55:31.201Z,29.52
2023-06-30T06:56:31.255Z,29.52
2023-06-30T06:57:31.256Z,29.53
2023-06-30T06:58:31.332Z,29.54
2023-06-30T06:59:31.359Z,29.53
2023-06-30T07:00:31.470Z,29.53
2023-06-30T07:01:31.555Z,29.54
2023-06-30T07:02:31.674Z,29.53
2023-06-30T07:03:31.668Z,29.54
2023-06-30T07:04:31.701Z,29.52
2023-06-30T07:05:31.779Z,29.50
2023-06-30T07:06:31.820Z,29.53
2023-06-30T07:07:33.687Z,29.52
2023-06-30T07:08:31.901Z,29.53
2023-06-30T07:09:32.004Z,29.52
2023-06-30T07:10:32.109Z,29.52
2023-06-30T07:11:32.112Z,29.52
2023-06-30T07:12:32.148Z,29.50
2023-06-30T07:13:32.206Z,29.49
2023-06-30T07:14:32.340Z,29.50
2023-06-30T07:15:32.362Z,29.49
2023-06-30T07:16:32.520Z,29.48
2023-06-30T07:17:32.644Z,29.46
2023-06-30T07:18:32.621Z,29.48
2023-06-30T07:19:32.588Z,29.45
2023-06-30T07:20:32.674Z,29.46
2023-06-30T07:21:32.717Z,29.46
2023-06-30T07:22:32.756Z,29.45
2023-06-30T07:23:32.829Z,29.45
2023-06-30T07:24:42.854Z,29.43
2023-06-30T07:25:33.895Z,29.43
2023-06-30T07:26:32.941Z,29.43
2023-06-30T07:27:32.862Z,29.43
2023-06-30T07:28:32.900Z,29.42
2023-06-30T07:29:32.839Z,29.46
2023-06-30T07:30:32.870Z,29.45
2023-06-30T07:31:32.954Z,29.42
2023-06-30T07:32:32.878Z,29.45
2023-06-30T07:33:32.865Z,29.42
2023-06-30T07:34:32.914Z,29.43
2023-06-30T07:35:32.991Z,29.43
2023-06-30T07:36:33.052Z,29.42
2023-06-30T07:37:33.120Z,29.45
2023-06-30T07:38:33.178Z,29.42
2023-06-30T07:39:33.225Z,29.42
2023-06-30T07:40:50.461Z,29.42
2023-06-30T07:41:34.330Z,29.42
2023-06-30T07:42:33.279Z,29.43
2023-06-30T07:43:33.253Z,29.39
2023-06-30T07:44:33.270Z,29.42
2023-06-30T07:45:33.316Z,29.39
2023-06-30T07:46:33.306Z,29.39
2023-06-30T07:47:33.321Z,29.37
2023-06-30T07:48:33.364Z,29.40
2023-06-30T07:49:33.245Z,29.36
2023-06-30T07:50:33.241Z,29.37
2023-06-30T07:51:33.241Z,29.45
2023-06-30T07:52:33.318Z,29.46
2023-06-30T07:53:33.389Z,29.43
2023-06-30T07:54:33.443Z,29.46
2023-06-30T07:55:33.551Z,29.49
2023-06-30T07:56:33.581Z,29.50
2023-06-30T07:57:33.658Z,29.49
2023-06-30T07:58:33.753Z,29.52
2023-06-30T07:59:33.737Z,29.49
2023-06-30T08:00:33.820Z,29.48
2023-06-30T08:01:33.888Z,29.46
2023-06-30T08:02:34.044Z,29.46
2023-06-30T08:03:34.177Z,29.45
2023-06-30T08:04:34.221Z,29.43
2023-06-30T08:05:34.380Z,29.42
2023-06-30T08:06:34.231Z,29.39
2023-06-30T08:07:48.397Z,29.40
2023-06-30T08:08:35.285Z,29.37
2023-06-30T08:09:34.227Z,29.40
2023-06-30T08:10:35.820Z,29.42
2023-06-30T08:11:34.222Z,29.40
2023-06-30T08:12:34.219Z,29.40
2023-06-30T08:13:34.208Z,29.40
2023-06-30T08:14:34.194Z,29.42
2023-06-30T08:15:34.205Z,29.37
2023-06-30T08:16:34.242Z,29.39
2023-06-30T08:17:51.134Z,29.37
2023-06-30T08:18:35.298Z,29.36
2023-06-30T08:19:48.460Z,29.37
2023-06-30T08:20:35.231Z,29.39
2023-06-30T08:21:34.151Z,29.40
2023-06-30T08:22:34.126Z,29.39
2023-06-30T08:23:34.148Z,29.40
2023-06-30T08:24:34.155Z,29.40
2023-06-30T08:25:34.153Z,29.40
2023-06-30T08:26:34.174Z,29.37
2023-06-30T08:27:34.093Z,29.39
2023-06-30T08:28:34.079Z,29.35
2023-06-30T08:29:34.129Z,29.32
2023-06-30T08:30:34.741Z,29.36
2023-06-30T08:31:34.394Z,29.33
2023-06-30T08:32:34.317Z,29.36
2023-06-30T08:33:40.532Z,29.35
2023-06-30T08:34:35.248Z,29.35
2023-06-30T08:35:34.229Z,29.33
2023-06-30T08:36:34.255Z,29.35
2023-06-30T08:37:34.201Z,29.37
2023-06-30T08:38:34.206Z,29.35
2023-06-30T08:39:35.169Z,29.33
2023-06-30T08:40:34.196Z,29.36
2023-06-30T08:41:34.233Z,29.35
2023-06-30T08:42:34.222Z,29.35
2023-06-30T08:43:34.179Z,29.37
2023-06-30T08:44:34.191Z,29.35
2023-06-30T08:45:34.292Z,29.39
2023-06-30T08:46:34.325Z,29.40
2023-06-30T08:47:34.403Z,29.40
2023-06-30T08:48:34.426Z,29.43
2023-06-30T08:49:34.457Z,29.48
2023-06-30T08:50:34.546Z,29.50
2023-06-30T08:51:34.606Z,29.50
2023-06-30T08:52:34.660Z,29.53
2023-06-30T08:53:34.727Z,29.57
2023-06-30T08:54:34.792Z,29.57
2023-06-30T08:55:34.816Z,29.60
2023-06-30T08:56:34.851Z,29.60
2023-06-30T08:57:34.924Z,29.60
2023-06-30T08:58:34.970Z,29.62
2023-06-30T08:59:35.016Z,29.62
2023-06-30T09:00:35.066Z,29.62
2023-06-30T09:01:35.147Z,29.60
2023-06-30T09:02:35.361Z,29.60
2023-06-30T09:03:35.298Z,29.60
2023-06-30T09:04:35.326Z,29.59
2023-06-30T09:05:35.315Z,29.60
2023-06-30T09:06:35.427Z,29.57
2023-06-30T09:07:35.511Z,29.59
2023-06-30T09:08:35.484Z,29.60
2023-06-30T09:09:35.533Z,29.56
2023-06-30T09:10:35.618Z,29.59
2023-06-30T09:11:35.649Z,29.56
2023-06-30T09:12:35.708Z,29.56
2023-06-30T09:13:35.798Z,29.50
2023-06-30T09:14:35.842Z,29.46
2023-06-30T09:15:35.905Z,29.49
2023-06-30T09:16:36.038Z,29.48
2023-06-30T09:17:36.057Z,29.49
2023-06-30T09:18:36.077Z,29.49
2023-06-30T09:19:36.102Z,29.50
2023-06-30T09:20:36.192Z,29.49
2023-06-30T09:21:36.238Z,29.46
2023-06-30T09:22:52.194Z,29.49
2023-06-30T09:23:37.277Z,29.53
2023-06-30T09:24:36.323Z,29.53
2023-06-30T09:25:36.360Z,29.54
2023-06-30T09:26:36.252Z,29.53
2023-06-30T09:27:36.273Z,29.52
2023-06-30T09:28:36.301Z,29.56
2023-06-30T09:29:36.256Z,29.54
2023-06-30T09:30:36.268Z,29.52
2023-06-30T09:31:36.303Z,29.53
2023-06-30T09:32:36.335Z,29.52
2023-06-30T09:33:36.376Z,29.50
2023-06-30T09:34:36.432Z,29.49
2023-06-30T09:35:36.493Z,29.48
2023-06-30T09:36:36.602Z,29.48
2023-06-30T09:37:36.604Z,29.48
2023-06-30T09:38:36.701Z,29.45
2023-06-30T09:39:36.771Z,29.48
2023-06-30T09:40:36.838Z,29.49
2023-06-30T09:41:36.844Z,29.45
2023-06-30T09:42:36.930Z,29.43
2023-06-30T09:43:36.952Z,29.46
2023-06-30T09:44:37.077Z,29.46
2023-06-30T09:45:37.228Z,29.46
2023-06-30T09:46:37.290Z,29.46
2023-06-30T09:47:37.296Z,29.42
2023-06-30T09:48:37.310Z,29.43
2023-06-30T09:49:37.386Z,29.43
2023-06-30T09:50:37.480Z,29.43
2023-06-30T09:51:37.580Z,29.48
2023-06-30T09:52:37.542Z,29.56
2023-06-30T09:53:37.689Z,29.57
2023-06-30T09:54:44.612Z,29.62
2023-06-30T09:55:38.698Z,29.66
2023-06-30T09:56:37.638Z,29.69
2023-06-30T09:57:37.614Z,29.70
2023-06-30T09:58:37.629Z,29.74
2023-06-30T09:59:37.628Z,29.74
2023-06-30T10:00:37.648Z,29.77
2023-06-30T10:01:37.642Z,29.67
2023-06-30T10:02:37.748Z,29.56
2023-06-30T10:03:37.705Z,29.57
2023-06-30T10:04:38.487Z,29.59
2023-06-30T10:05:37.677Z,29.59
2023-06-30T10:06:37.714Z,29.60
2023-06-30T10:07:37.840Z,29.59
2023-06-30T10:08:37.824Z,29.57
2023-06-30T10:09:37.902Z,29.62
2023-06-30T10:10:38.267Z,29.56
2023-06-30T10:11:38.014Z,29.59
2023-06-30T10:12:38.093Z,29.57
2023-06-30T10:13:38.137Z,29.57
2023-06-30T10:14:38.207Z,29.57
2023-06-30T10:15:38.254Z,29.57
2023-06-30T10:16:38.281Z,29.60
2023-06-30T10:17:38.511Z,29.62
2023-06-30T10:18:38.459Z,29.69
2023-06-30T10:19:38.446Z,29.63
2023-06-30T10:20:48.072Z,29.57
2023-06-30T10:21:39.536Z,29.62
2023-06-30T10:22:38.500Z,29.59
2023-06-30T10:23:38.523Z,29.56
2023-06-30T10:24:38.522Z,29.49
2023-06-30T10:25:38.495Z,29.50
2023-06-30T10:26:38.449Z,29.52
2023-06-30T10:27:38.476Z,29.53
2023-06-30T10:28:38.438Z,29.52
2023-06-30T10:29:38.516Z,29.50
2023-06-30T10:30:38.732Z,29.50
2023-06-30T10:31:38.617Z,29.49
2023-06-30T10:32:38.719Z,29.46
2023-06-30T10:33:38.815Z,29.46
2023-06-30T10:34:38.754Z,29.49
2023-06-30T10:35:39.238Z,29.49
2023-06-30T10:36:38.914Z,29.50
2023-06-30T10:37:38.974Z,29.49
2023-06-30T10:38:39.031Z,29.49
2023-06-30T10:39:39.077Z,29.39
2023-06-30T10:40:39.265Z,29.32
2023-06-30T10:41:39.072Z,29.30
2023-06-30T10:42:39.085Z,29.25
2023-06-30T10:43:39.139Z,29.32
2023-06-30T10:44:39.153Z,29.36
2023-06-30T10:45:39.141Z,29.37
2023-06-30T10:46:39.203Z,29.37
2023-06-30T10:47:39.181Z,29.42
2023-06-30T10:48:39.157Z,29.45
2023-06-30T10:49:39.213Z,29.49
2023-06-30T10:50:39.345Z,29.52
2023-06-30T10:51:39.328Z,29.53
2023-06-30T10:52:39.439Z,29.56
2023-06-30T10:53:39.507Z,29.56
2023-06-30T10:54:39.606Z,29.57
2023-06-30T10:55:39.582Z,29.63
2023-06-30T10:56:39.639Z,29.66
2023-06-30T10:57:39.674Z,29.67
2023-06-30T10:58:39.743Z,29.69
2023-06-30T10:59:39.783Z,29.69
2023-06-30T11:00:39.829Z,29.67
2023-06-30T11:01:39.888Z,29.70
2023-06-30T11:02:39.996Z,29.72
2023-06-30T11:03:40.031Z,29.73
2023-06-30T11:04:40.185Z,29.76
2023-06-30T11:05:40.103Z,29.79
2023-06-30T11:06:40.083Z,29.80
2023-06-30T11:07:40.263Z,29.81
2023-06-30T11:08:40.141Z,29.83
2023-06-30T11:09:40.176Z,29.83
2023-06-30T11:10:40.229Z,29.84
2023-06-30T11:11:40.247Z,29.87
2023-06-30T11:12:40.286Z,29.85
2023-06-30T11:13:40.307Z,29.85
2023-06-30T11:14:40.377Z,29.90
2023-06-30T11:15:40.373Z,29.91
2023-06-30T11:16:40.394Z,29.90
2023-06-30T11:17:40.527Z,29.90
2023-06-30T11:18:40.593Z,29.93
2023-06-30T11:19:40.473Z,29.96
2023-06-30T11:20:40.738Z,29.96
2023-06-30T11:21:40.494Z,29.97
2023-06-30T11:22:40.528Z,29.99
2023-06-30T11:23:40.645Z,30.00
2023-06-30T11:24:40.547Z,30.01
2023-06-30T11:25:40.532Z,30.03
2023-06-30T11:26:40.537Z,30.04
2023-06-30T11:27:40.528Z,30.08
2023-06-30T11:28:40.570Z,30.07
2023-06-30T11:29:40.599Z,30.08
2023-06-30T11:30:40.603Z,30.10
2023-06-30T11:31:40.631Z,30.08
2023-06-30T11:32:40.605Z,30.03
2023-06-30T11:33:40.613Z,30.03
2023-06-30T11:34:40.619Z,30.08
2023-06-30T11:35:40.660Z,30.17
2023-06-30T11:36:40.645Z,30.15
2023-06-30T11:37:40.639Z,30.17
2023-06-30T11:38:40.640Z,30.17
2023-06-30T11:39:40.669Z,30.14
2023-06-30T11:40:40.658Z,30.15
2023-06-30T11:41:40.668Z,30.13
2023-06-30T11:42:40.693Z,30.14
2023-06-30T11:43:40.681Z,30.11
2023-06-30T11:44:40.661Z,30.10
2023-06-30T11:45:40.703Z,30.05
2023-06-30T11:46:40.758Z,30.08
2023-06-30T11:47:40.785Z,30.05
2023-06-30T11:48:40.754Z,30.03
2023-06-30T11:49:40.765Z,30.04
2023-06-30T11:50:40.807Z,30.00
2023-06-30T11:51:40.833Z,29.96
2023-06-30T11:52:40.857Z,29.94
2023-06-30T11:53:40.899Z,29.97
2023-06-30T11:54:40.903Z,29.93
2023-06-30T11:55:40.914Z,29.88
2023-06-30T11:56:40.981Z,29.90
2023-06-30T11:57:40.967Z,29.88
2023-06-30T11:58:41.007Z,29.87
2023-06-30T11:59:41.064Z,29.87
2023-06-30T12:00:41.084Z,29.84
2023-06-30T12:01:41.118Z,29.83
2023-06-30T12:02:41.195Z,29.83
2023-06-30T12:03:41.202Z,29.81
2023-06-30T12:04:41.220Z,29.81
2023-06-30T12:05:41.325Z,29.80
2023-06-30T12:06:41.296Z,29.77
2023-06-30T12:07:41.290Z,29.76
2023-06-30T12:08:41.355Z,29.74
2023-06-30T12:09:41.388Z,29.76
2023-06-30T12:10:41.488Z,29.76
2023-06-30T12:11:41.474Z,29.74
2023-06-30T12:12:41.532Z,29.76
2023-06-30T12:13:41.547Z,29.72
2023-06-30T12:14:41.625Z,29.72
2023-06-30T12:15:41.823Z,29.72
2023-06-30T12:16:41.697Z,29.72
2023-06-30T12:17:41.730Z,29.69
2023-06-30T12:18:41.791Z,29.72
2023-06-30T12:19:41.834Z,29.67
2023-06-30T12:20:41.904Z,29.69
2023-06-30T12:21:41.947Z,29.69
2023-06-30T12:22:41.985Z,29.67
2023-06-30T12:23:42.068Z,29.66
2023-06-30T12:24:42.100Z,29.62
2023-06-30T12:25:42.153Z,29.64
2023-06-30T12:26:42.186Z,29.66
2023-06-30T12:27:42.230Z,29.64
2023-06-30T12:28:42.273Z,29.62
2023-06-30T12:29:42.348Z,29.64
2023-06-30T12:30:42.513Z,29.62
2023-06-30T12:31:42.448Z,29.63
2023-06-30T12:32:42.542Z,29.59
2023-06-30T12:33:42.553Z,29.60
2023-06-30T12:34:42.674Z,29.60
2023-06-30T12:35:42.887Z,29.60
2023-06-30T12:36:42.696Z,29.59
2023-06-30T12:37:42.785Z,29.56
2023-06-30T12:38:42.846Z,29.53
2023-06-30T12:39:42.905Z,29.56
2023-06-30T12:40:42.930Z,29.56
2023-06-30T12:41:42.980Z,29.54
2023-06-30T12:42:43.040Z,29.53
2023-06-30T12:43:43.306Z,29.49
2023-06-30T12:44:43.140Z,29.49
2023-06-30T12:45:43.210Z,29.52
2023-06-30T12:46:43.276Z,29.49
2023-06-30T12:47:43.341Z,29.50
2023-06-30T12:48:43.402Z,29.52
2023-06-30T12:49:43.443Z,29.50
2023-06-30T12:50:44.015Z,29.52
2023-06-30T12:51:43.561Z,29.53
2023-06-30T12:52:43.640Z,29.52